Chapman Ranch, Texas
Current Conditions -  °F | °C
As of 2:19 AM on Saturday 20 Dec 2014 (Local Time) from KNGP Reporting Station
Overcast Overcast  
Wind Chill: 56°   Ceiling: 1300
Heat Index: 56°   Visibility: 10mi
Dew Point: 53°   Wind: 17mph
Humidity: 90%   Direction: 10°N
Pressure: 30.12"   Gusts: NA
Location:  27.59°N, 97.45°W
Report Text: KNGP 200819Z AUTO 01015KT 10SM OVC013 13/12 A3012 RMK AO2 T01330117
Loading
Personal Weather Stations






























Interactive Weather Map New forecast layout! Learn more

10-Day Weather Forecast

Advertisements
Track Severe Weather on mobile